Time;durP1;ratioP1;P1;durP2;ratioP2;P2;SDS_P1;SDS_P2;PMS_P1;PMS_P2;Temp;Humidity;BMP_temperature;BMP_pressure;BME280_temperature;BME280_humidity;BME280_pressure;Samples;Min_cycle;Max_cycle;Signal;HPM_P1;HPM_P2
2021/12/25 00:02:49;;;;;;;21.50;12.05;;;;;;;0.33;100.00;97376.04;2116957;84;21042;-80
2021/12/25 00:05:52;;;;;;;19.27;11.18;;;;;;;0.27;100.00;97373.56;2117051;84;21497;-79
2021/12/25 00:08:53;;;;;;;15.88;11.20;;;;;;;0.26;100.00;97398.50;2116814;84;21554;-80
2021/12/25 00:11:54;;;;;;;17.25;11.43;;;;;;;0.24;100.00;97398.33;2117010;84;21063;-80
2021/12/25 00:14:54;;;;;;;13.25;10.68;;;;;;;0.22;100.00;97408.78;2116873;83;20970;-79
2021/12/25 00:17:55;;;;;;;18.00;11.83;;;;;;;0.19;100.00;97406.98;2116832;84;21073;-80
2021/12/25 00:20:56;;;;;;;17.48;12.05;;;;;;;0.15;100.00;97412.88;2116849;84;21030;-79
2021/12/25 00:23:57;;;;;;;17.50;12.03;;;;;;;0.16;100.00;97404.68;2116820;84;21049;-79
2021/12/25 00:27:06;;;;;;;16.00;10.38;;;;;;;0.14;100.00;97401.45;2116803;84;21021;-80
2021/12/25 00:33:28;;;;;;;13.65;10.32;;;;;;;0.09;100.00;97414.77;2116882;84;21035;-80
2021/12/25 00:36:07;;;;;;;13.43;10.15;;;;;;;0.07;100.00;97418.42;2113602;84;21129;-80
2021/12/25 00:39:07;;;;;;;19.85;12.75;;;;;;;0.06;100.00;97432.25;2116943;83;22168;-80
2021/12/25 00:42:08;;;;;;;20.10;13.83;;;;;;;0.02;100.00;97429.17;2116774;84;21029;-80
2021/12/25 00:45:09;;;;;;;21.55;13.93;;;;;;;0.02;100.00;97443.33;2116745;84;21014;-80
2021/12/25 00:48:10;;;;;;;21.15;14.55;;;;;;;0.01;100.00;97454.58;2116908;84;21025;-80
2021/12/25 00:51:11;;;;;;;20.97;14.33;;;;;;;-0.04;100.00;97470.91;2116779;84;21010;-80
2021/12/25 00:54:12;;;;;;;20.37;12.23;;;;;;;-0.07;100.00;97469.92;2116887;83;21144;-80
2021/12/25 00:57:12;;;;;;;18.42;12.53;;;;;;;-0.11;100.00;97472.42;2116876;84;21206;-80
2021/12/25 01:00:13;;;;;;;14.70;10.88;;;;;;;-0.16;100.00;97491.36;2116889;84;21502;-80
2021/12/25 01:03:14;;;;;;;10.18;7.80;;;;;;;-0.23;100.00;97510.40;2116873;83;21077;-79
2021/12/25 01:06:15;;;;;;;5.55;4.70;;;;;;;-0.36;100.00;97527.92;2116580;84;21033;-80
2021/12/25 01:09:16;;;;;;;5.12;3.72;;;;;;;-0.61;100.00;97534.46;2116858;84;21086;-79
2021/12/25 01:12:17;;;;;;;4.12;3.67;;;;;;;-0.84;100.00;97545.50;2116974;84;21520;-79
2021/12/25 01:15:21;;;;;;;4.50;4.10;;;;;;;-1.02;100.00;97548.41;2116761;84;21287;-80
2021/12/25 01:34:33;;;;;;;3.70;3.40;;;;;;;-1.64;100.00;97604.28;2116769;84;21161;-78
2021/12/25 01:37:26;;;;;;;4.20;3.72;;;;;;;-1.73;100.00;97608.44;2113764;84;22212;-79
2021/12/25 01:50:17;;;;;;;3.83;3.52;;;;;;;-1.86;100.00;97642.47;2116829;84;21082;-79
2021/12/25 01:53:18;;;;;;;4.17;3.60;;;;;;;-1.97;100.00;97648.97;2096300;84;20997;-79
2021/12/25 01:56:19;;;;;;;5.30;3.75;;;;;;;-2.08;100.00;97662.68;2116754;84;20974;-79
2021/12/25 01:59:20;;;;;;;4.85;4.33;;;;;;;-2.18;100.00;97668.22;2117414;84;21002;-78
2021/12/25 02:02:21;;;;;;;4.10;3.52;;;;;;;-2.28;100.00;97666.06;2116734;84;20974;-79
2021/12/25 02:05:22;;;;;;;4.72;3.87;;;;;;;-2.33;100.00;97665.61;2116843;84;21017;-80
2021/12/25 02:08:22;;;;;;;5.42;4.90;;;;;;;-2.33;100.00;97668.17;2116763;84;20963;-80
2021/12/25 02:11:24;;;;;;;16.62;7.62;;;;;;;-2.36;100.00;97678.22;2116831;84;21098;-80
2021/12/25 02:14:25;;;;;;;5.50;4.72;;;;;;;-2.39;100.00;97675.07;2116847;84;21014;-80
2021/12/25 02:17:36;;;;;;;4.03;3.60;;;;;;;-2.39;100.00;97677.63;2116972;84;21453;-79
2021/12/25 02:20:34;;;;;;;3.67;3.37;;;;;;;-2.43;100.00;97677.55;2115409;84;21054;-79
2021/12/25 02:23:31;;;;;;;3.95;3.60;;;;;;;-2.48;100.00;97687.34;2116398;84;21101;-79
2021/12/25 02:26:32;;;;;;;3.42;3.22;;;;;;;-2.48;100.00;97689.91;2116741;84;21529;-79
2021/12/25 02:29:33;;;;;;;2.98;2.77;;;;;;;-2.53;100.00;97679.23;2116776;84;20979;-79
2021/12/25 02:32:34;;;;;;;3.00;2.80;;;;;;;-2.56;100.00;97694.39;2116810;84;21113;-79
2021/12/25 02:35:35;;;;;;;2.30;2.20;;;;;;;-2.56;100.00;97694.39;2116804;84;20955;-79
2021/12/25 02:38:35;;;;;;;2.35;2.25;;;;;;;-2.58;100.00;97706.49;2116819;84;21045;-79
2021/12/25 02:41:36;;;;;;;3.17;2.98;;;;;;;-2.61;100.00;97710.12;2116752;84;21016;-79
2021/12/25 02:44:37;;;;;;;3.00;2.80;;;;;;;-2.59;100.00;97724.09;2116731;84;21042;-79
2021/12/25 02:47:42;;;;;;;3.77;2.90;;;;;;;-2.59;100.00;97728.75;2116913;84;21089;-79
2021/12/25 02:50:40;;;;;;;3.12;2.95;;;;;;;-2.60;100.00;97739.94;2116702;84;21014;-79
2021/12/25 02:53:41;;;;;;;5.95;3.00;;;;;;;-2.61;100.00;97749.03;2117169;84;21538;-79
2021/12/25 02:56:42;;;;;;;2.65;2.50;;;;;;;-2.68;100.00;97768.38;2116839;84;21057;-78
2021/12/25 02:59:43;;;;;;;2.42;2.22;;;;;;;-2.76;100.00;97773.28;2117031;84;21454;-79
2021/12/25 03:02:44;;;;;;;1.80;1.70;;;;;;;-2.92;100.00;97776.23;2116880;84;21045;-79
2021/12/25 03:05:44;;;;;;;1.92;1.77;;;;;;;-3.04;100.00;97780.53;2116858;84;21081;-78
2021/12/25 03:08:45;;;;;;;2.47;2.10;;;;;;;-3.11;100.00;97790.89;2116806;84;21010;-80
2021/12/25 03:11:46;;;;;;;2.50;2.30;;;;;;;-3.18;100.00;97792.30;2116849;84;21628;-79
2021/12/25 03:15:07;;;;;;;2.10;2.00;;;;;;;-3.26;100.00;97796.72;2116871;84;21045;-79
2021/12/25 03:18:05;;;;;;;1.87;1.77;;;;;;;-3.32;100.00;97809.97;2116738;84;21019;-79
2021/12/25 03:21:05;;;;;;;2.87;2.67;;;;;;;-3.45;100.00;97820.31;2116905;84;21877;-79
2021/12/25 03:24:06;;;;;;;2.30;2.10;;;;;;;-3.58;100.00;97832.38;2117199;84;20998;-78
2021/12/25 03:27:07;;;;;;;2.10;1.98;;;;;;;-3.73;100.00;97839.91;2117103;84;21106;-79
2021/12/25 03:30:09;;;;;;;1.35;1.30;;;;;;;-3.93;100.00;97840.07;2117055;84;21513;-79
2021/12/25 03:33:10;;;;;;;5.22;2.42;;;;;;;-4.16;100.00;97850.65;2116842;84;21057;-78
2021/12/25 03:36:11;;;;;;;4.50;2.80;;;;;;;-4.39;100.00;97865.49;2116974;84;21511;-79
2021/12/25 03:39:13;;;;;;;2.27;2.05;;;;;;;-4.56;100.00;97866.69;2116675;84;21073;-78
2021/12/25 03:42:14;;;;;;;2.33;2.12;;;;;;;-4.70;100.00;97861.69;2116819;84;21081;-78
2021/12/25 03:45:15;;;;;;;2.58;2.40;;;;;;;-4.86;100.00;97871.66;2122379;83;21485;-79
2021/12/25 03:48:42;;;;;;;4.17;1.90;;;;;;;-4.94;100.00;97885.44;2143070;83;21570;-79
2021/12/25 03:58:01;;;;;;;3.35;2.40;;;;;;;-5.16;100.00;97892.41;2142903;83;21081;-78
2021/12/25 04:01:11;;;;;;;2.90;2.12;;;;;;;-5.22;100.00;97903.02;2142591;83;21591;-79
2021/12/25 04:04:14;;;;;;;1.77;1.67;;;;;;;-5.26;100.00;97895.67;2140859;83;21643;-79
2021/12/25 04:07:39;;;;;;;;;;;;;;;-5.33;100.00;97882.95;2144829;83;21089;-79
2021/12/25 04:10:16;;;;;;;2.05;1.77;;;;;;;-5.39;100.00;97899.50;2138539;83;20192;-79
2021/12/25 04:13:17;;;;;;;3.00;1.55;;;;;;;-5.42;100.00;97889.48;2142880;83;21080;-79
2021/12/25 04:16:18;;;;;;;1.87;1.77;;;;;;;-5.45;100.00;97903.72;2142805;83;21016;-78
2021/12/25 04:19:19;;;;;;;1.65;1.55;;;;;;;-5.50;100.00;97901.91;2142841;83;20984;-79
2021/12/25 04:22:27;;;;;;;1.67;1.57;;;;;;;-5.55;100.00;97911.61;2142832;83;21568;-79
2021/12/25 04:25:27;;;;;;;3.47;1.70;;;;;;;-5.57;100.00;97917.27;2141614;83;21128;-79
2021/12/25 04:28:38;;;;;;;2.30;1.80;;;;;;;-5.62;100.00;97917.55;2142608;83;21073;-79
2021/12/25 04:32:00;;;;;;;1.82;1.72;;;;;;;-5.62;100.00;97923.93;2141767;83;21032;-79
2021/12/25 04:48:27;;;;;;;2.80;2.12;;;;;;;-5.63;100.00;97964.84;2111375;84;21048;-79
2021/12/25 05:04:04;;;;;;;2.22;2.00;;;;;;;-5.76;100.00;97994.95;2101648;85;21022;-79
2021/12/25 05:07:02;;;;;;;5.00;2.85;;;;;;;-5.79;100.00;97996.86;2177329;82;21039;-78
2021/12/25 05:10:03;;;;;;;2.42;2.27;;;;;;;-5.84;100.00;98001.44;2177628;82;20996;-79
2021/12/25 05:13:04;;;;;;;3.20;2.15;;;;;;;-5.88;100.00;98005.89;2178276;81;20996;-79
2021/12/25 05:16:05;;;;;;;4.45;2.70;;;;;;;-5.92;100.00;98016.42;2177743;82;21013;-79
2021/12/25 05:19:05;;;;;;;4.10;2.50;;;;;;;-5.97;100.00;98029.43;2177684;82;21012;-79
2021/12/25 05:22:06;;;;;;;6.42;3.22;;;;;;;-6.02;100.00;98033.55;2177652;81;21056;-78
2021/12/25 05:25:07;;;;;;;8.03;3.77;;;;;;;-6.03;100.00;98026.00;2177745;82;21013;-78
2021/12/25 05:28:08;;;;;;;5.03;3.47;;;;;;;-6.06;100.00;98028.25;2177622;82;21089;-79
2021/12/25 05:31:08;;;;;;;4.50;2.95;;;;;;;-6.10;100.00;98037.02;2177795;82;20933;-78
2021/12/25 05:34:09;;;;;;;4.85;3.50;;;;;;;-6.13;100.00;98036.36;2177730;81;21036;-79
2021/12/25 05:37:10;;;;;;;7.10;3.62;;;;;;;-6.19;100.00;98041.39;2177664;82;20977;-78
2021/12/25 05:40:12;;;;;;;5.30;3.83;;;;;;;-6.25;100.00;98054.48;2177734;82;20938;-78
2021/12/25 05:43:13;;;;;;;3.50;3.15;;;;;;;-6.29;100.00;98045.39;2177703;82;21523;-79
2021/12/25 05:46:14;;;;;;;10.15;3.45;;;;;;;-6.34;100.00;98063.48;2181179;81;21068;-78
2021/12/25 05:49:14;;;;;;;8.20;4.60;;;;;;;-6.40;100.00;98067.69;2187666;81;20977;-79
2021/12/25 05:52:15;;;;;;;11.28;6.45;;;;;;;-6.47;100.00;98071.95;2187568;81;21569;-79
2021/12/25 05:55:16;;;;;;;12.18;6.50;;;;;;;-6.51;100.00;98076.84;2187669;81;20989;-78
2021/12/25 05:58:17;;;;;;;15.60;6.55;;;;;;;-6.54;100.00;98084.21;2187506;81;20977;-78
2021/12/25 06:01:18;;;;;;;9.35;5.85;;;;;;;-6.57;100.00;98093.77;2187574;81;21587;-78
2021/12/25 06:04:18;;;;;;;11.78;6.87;;;;;;;-6.62;100.00;98099.11;2187394;81;21017;-79
2021/12/25 06:07:19;;;;;;;13.72;6.37;;;;;;;-6.67;100.00;98104.94;2187341;81;21524;-78
2021/12/25 06:10:20;;;;;;;8.85;5.03;;;;;;;-6.70;100.00;98109.73;2187582;81;20973;-77
2021/12/25 06:13:21;;;;;;;12.35;6.60;;;;;;;-6.72;100.00;98112.00;2187529;81;20970;-79
2021/12/25 06:16:22;;;;;;;13.03;6.12;;;;;;;-6.76;100.00;98102.45;2187585;81;21004;-78
2021/12/25 06:19:23;;;;;;;19.35;7.35;;;;;;;-6.80;100.00;98109.88;2187765;81;20911;-79
2021/12/25 06:22:23;;;;;;;23.52;9.18;;;;;;;-6.82;100.00;98098.97;2187758;81;20973;-79
2021/12/25 06:25:24;;;;;;;18.15;8.05;;;;;;;-6.83;100.00;98100.34;2187885;81;20997;-79
2021/12/25 06:28:25;;;;;;;12.88;7.92;;;;;;;-6.85;100.00;98112.34;2187831;81;20982;-79
2021/12/25 06:31:26;;;;;;;26.07;8.93;;;;;;;-6.87;100.00;98113.67;2187781;81;20958;-79
2021/12/25 06:34:27;;;;;;;12.80;8.05;;;;;;;-6.88;100.00;98124.77;2187821;81;20982;-79
2021/12/25 06:37:27;;;;;;;19.07;6.53;;;;;;;-6.90;100.00;98132.48;2187857;81;21012;-79
2021/12/25 06:40:28;;;;;;;13.60;7.95;;;;;;;-6.92;100.00;98132.22;2187737;81;20981;-79
2021/12/25 06:43:29;;;;;;;20.50;10.35;;;;;;;-6.91;100.00;98135.95;2187763;81;21052;-79
2021/12/25 06:46:30;;;;;;;25.72;11.88;;;;;;;-6.95;100.00;98142.13;2181726;81;21084;-79
2021/12/25 06:49:31;;;;;;;26.90;11.97;;;;;;;-6.97;100.00;98150.27;2171235;81;20989;-78
2021/12/25 06:52:31;;;;;;;25.17;11.43;;;;;;;-6.98;100.00;98144.00;2171217;81;21089;-79
2021/12/25 06:55:32;;;;;;;30.37;13.18;;;;;;;-6.97;100.00;98152.00;2171164;81;21029;-78
2021/12/25 06:58:33;;;;;;;36.03;15.15;;;;;;;-6.96;100.00;98151.09;2171344;81;21027;-80
2021/12/25 07:01:35;;;;;;;29.18;12.33;;;;;;;-6.92;100.00;98148.77;2171676;82;21006;-79
2021/12/25 07:04:35;;;;;;;23.35;10.85;;;;;;;-6.89;100.00;98154.48;2171182;81;20974;-78
2021/12/25 07:07:36;;;;;;;25.70;9.40;;;;;;;-6.90;100.00;98161.77;2171277;81;21552;-80
2021/12/25 07:10:37;;;;;;;17.30;7.20;;;;;;;-6.85;100.00;98173.44;2171375;81;21017;-80
2021/12/25 07:13:41;;;;;;;16.62;7.78;;;;;;;-6.84;100.00;98182.26;2171123;81;21155;-79
2021/12/25 07:16:41;;;;;;;8.38;4.67;;;;;;;-6.78;100.00;98177.27;2126643;84;21080;-79
2021/12/25 07:19:41;;;;;;;4.90;3.58;;;;;;;-6.70;100.00;98195.48;2126975;84;21074;-79
2021/12/25 07:22:42;;;;;;;4.22;3.62;;;;;;;-6.67;100.00;98185.16;2126734;84;21013;-83
2021/12/25 07:25:43;;;;;;;5.30;3.15;;;;;;;-6.61;100.00;98186.88;2126634;84;20965;-83
2021/12/25 07:28:44;;;;;;;4.35;3.45;;;;;;;-6.56;100.00;98182.82;2126804;84;21064;-82
2021/12/25 07:31:45;;;;;;;9.45;4.40;;;;;;;-6.54;100.00;98187.83;2126577;83;20972;-81
2021/12/25 07:34:47;;;;;;;10.70;5.20;;;;;;;-6.48;100.00;98202.32;2126837;84;21287;-82
2021/12/25 07:37:48;;;;;;;7.67;3.90;;;;;;;-6.39;100.00;98204.35;2126726;84;21124;-80
2021/12/25 07:40:49;;;;;;;6.35;3.35;;;;;;;-6.25;100.00;98202.28;2126704;84;20969;-80
2021/12/25 07:43:50;;;;;;;5.45;3.20;;;;;;;-6.18;100.00;98206.59;2126714;84;21507;-82
2021/12/25 07:46:51;;;;;;;7.05;2.80;;;;;;;-6.08;100.00;98203.88;2130147;82;21005;-82
2021/12/25 07:49:51;;;;;;;5.40;3.40;;;;;;;-6.07;100.00;98202.96;2136527;83;20972;-82
2021/12/25 07:52:52;;;;;;;4.75;3.40;;;;;;;-6.04;100.00;98194.67;2136271;83;21120;-82
2021/12/25 07:55:53;;;;;;;9.93;5.67;;;;;;;-6.04;100.00;98204.86;2136151;83;20953;-83
2021/12/25 07:58:54;;;;;;;8.30;6.10;;;;;;;-6.10;100.00;98216.71;2136364;83;21047;-83
2021/12/25 08:01:56;;;;;;;14.63;7.87;;;;;;;-6.14;100.00;98216.95;2136162;83;20953;-82
2021/12/25 08:04:57;;;;;;;5.95;4.50;;;;;;;-6.15;100.00;98227.61;2136322;83;21580;-78
2021/12/25 08:07:57;;;;;;;7.00;5.05;;;;;;;-6.12;100.00;98214.71;2136307;83;20981;-82
2021/12/25 08:10:58;;;;;;;8.30;5.80;;;;;;;-6.08;100.00;98215.34;2136065;83;21016;-83
2021/12/25 08:13:59;;;;;;;21.93;10.55;;;;;;;-6.04;100.00;98215.52;2136216;83;21118;-85
2021/12/25 08:17:00;;;;;;;20.30;11.45;;;;;;;-6.04;100.00;98232.91;2181356;82;21009;-86
2021/12/25 08:20:01;;;;;;;16.62;9.40;;;;;;;-6.07;100.00;98229.27;2181024;82;20970;-87
2021/12/25 08:23:02;;;;;;;16.80;8.13;;;;;;;-6.07;100.00;98226.72;2136307;83;21329;-86
2021/12/25 08:26:02;;;;;;;16.85;11.57;;;;;;;-6.08;100.00;98227.63;2137026;83;20977;-85
2021/12/25 08:29:03;;;;;;;22.35;11.08;;;;;;;-6.11;100.00;98231.64;2182327;81;21505;-88
2021/12/25 08:32:04;;;;;;;23.00;12.18;;;;;;;-6.08;100.00;98234.00;2181577;82;20989;-84
2021/12/25 08:35:05;;;;;;;18.52;9.35;;;;;;;-6.03;100.00;98238.86;2182119;82;21010;-84
2021/12/25 08:38:06;;;;;;;13.48;8.28;;;;;;;-5.93;100.00;98239.97;2136235;83;20973;-85
2021/12/25 08:41:07;;;;;;;14.55;8.70;;;;;;;-5.87;100.00;98252.31;2135976;83;21020;-85
2021/12/25 08:44:29;;;;;;;14.73;9.43;;;;;;;-5.85;100.00;98254.77;2136084;83;21051;-83
2021/12/25 08:47:10;;;;;;;12.15;6.78;;;;;;;-5.84;100.00;98259.80;2174066;82;21041;-82
2021/12/25 08:50:11;;;;;;;7.78;5.35;;;;;;;-5.81;100.00;98257.06;2171135;82;20927;-85
2021/12/25 08:53:12;;;;;;;8.95;5.90;;;;;;;-5.82;100.00;98267.36;2171490;81;21512;-84
2021/12/25 08:56:12;;;;;;;4.00;3.58;;;;;;;-5.79;100.00;98274.83;2171134;81;21034;-87
2021/12/25 08:59:13;;;;;;;6.10;3.52;;;;;;;-5.80;100.00;98279.11;2171301;81;20962;-85
2021/12/25 09:02:15;;;;;;;13.20;7.65;;;;;;;-5.84;100.00;98285.31;2171040;82;21065;-84
2021/12/25 09:05:16;;;;;;;15.90;7.12;;;;;;;-5.86;100.00;98273.07;2171068;82;21568;-83
2021/12/25 09:08:17;;;;;;;23.55;10.13;;;;;;;-5.76;100.00;98268.27;2171069;82;20978;-82
2021/12/25 09:11:20;;;;;;;47.80;17.27;;;;;;;-5.66;100.00;98268.13;2171178;81;20997;-81
2021/12/25 09:14:20;;;;;;;57.73;18.95;;;;;;;-5.53;100.00;98267.76;2171207;81;21025;-80
2021/12/25 09:17:21;;;;;;;50.15;20.30;;;;;;;-5.49;100.00;98267.11;2171332;81;21445;-82
2021/12/25 09:20:22;;;;;;;52.95;21.85;;;;;;;-5.46;100.00;98256.29;2171077;81;21089;-80
2021/12/25 09:23:24;;;;;;;46.25;19.17;;;;;;;-5.36;100.00;98266.77;2171102;81;20999;-83
2021/12/25 09:26:25;;;;;;;51.80;21.48;;;;;;;-5.31;100.00;98265.20;2171036;81;21101;-84
2021/12/25 09:29:25;;;;;;;38.28;17.00;;;;;;;-5.25;100.00;98273.33;2171090;82;20987;-83
2021/12/25 09:32:27;;;;;;;28.32;12.13;;;;;;;-5.18;100.00;98273.79;2171071;81;21086;-86
2021/12/25 09:35:27;;;;;;;18.05;10.05;;;;;;;-5.06;100.00;98278.15;2171004;81;20994;-85
2021/12/25 09:38:31;;;;;;;32.80;13.62;;;;;;;-5.04;100.00;98280.14;2171106;81;20974;-83
2021/12/25 09:41:32;;;;;;;35.17;15.25;;;;;;;-5.01;100.00;98281.72;2171063;81;21053;-83
2021/12/25 09:44:33;;;;;;;29.02;13.93;;;;;;;-4.91;100.00;98292.55;2171488;81;20973;-83
2021/12/25 09:47:34;;;;;;;35.23;15.40;;;;;;;-4.86;100.00;98290.52;2170896;81;21081;-84
2021/12/25 09:50:35;;;;;;;21.52;13.10;;;;;;;-4.75;100.00;98286.52;2170982;81;20923;-84
2021/12/25 09:53:36;;;;;;;17.02;11.05;;;;;;;-4.68;100.00;98292.86;2170945;82;21025;-84
2021/12/25 09:56:37;;;;;;;27.25;12.07;;;;;;;-4.59;100.00;98283.35;2170651;82;21270;-84
2021/12/25 09:59:37;;;;;;;143.78;55.98;;;;;;;-4.43;100.00;98285.78;2170687;81;21002;-83
2021/12/25 10:02:38;;;;;;;84.07;36.60;;;;;;;-4.29;100.00;98278.08;2170738;81;21074;-84
2021/12/25 10:05:41;;;;;;;31.12;15.90;;;;;;;-4.18;100.00;98276.93;2170979;81;21478;-80
2021/12/25 10:08:42;;;;;;;24.60;13.08;;;;;;;-4.11;100.00;98270.97;2170810;82;21034;-81
2021/12/25 10:11:43;;;;;;;8.68;6.05;;;;;;;-4.07;100.00;98279.61;2170929;81;21072;-83
2021/12/25 10:14:43;;;;;;;172.72;83.85;;;;;;;-3.95;100.00;98279.27;2170906;82;20951;-83
2021/12/25 10:17:44;;;;;;;62.93;36.70;;;;;;;-3.88;100.00;98261.33;2171040;82;21057;-83
2021/12/25 10:20:45;;;;;;;31.52;13.93;;;;;;;-3.86;100.00;98268.44;2171051;82;20966;-83
2021/12/25 10:23:46;;;;;;;8.83;5.90;;;;;;;-3.81;100.00;98263.04;2170956;82;20985;-82
2021/12/25 10:26:47;;;;;;;9.28;5.33;;;;;;;-3.75;100.00;98267.30;2171063;81;21489;-82
2021/12/25 10:29:48;;;;;;;13.58;7.42;;;;;;;-3.64;100.00;98274.27;2171161;82;21044;-82
2021/12/25 10:32:49;;;;;;;12.18;6.85;;;;;;;-3.59;100.00;98272.67;2171059;82;20959;-83
2021/12/25 10:35:50;;;;;;;11.60;7.40;;;;;;;-3.54;100.00;98280.41;2171124;81;21006;-83
2021/12/25 10:38:51;;;;;;;16.62;6.90;;;;;;;-3.57;100.00;98268.26;2171164;82;20993;-83
2021/12/25 10:41:52;;;;;;;14.13;7.50;;;;;;;-3.54;100.00;98270.17;2170961;81;21097;-83
2021/12/25 10:44:54;;;;;;;10.25;6.35;;;;;;;-3.47;100.00;98271.87;2171050;82;21505;-83
2021/12/25 10:47:55;;;;;;;12.13;6.22;;;;;;;-3.50;100.00;98259.26;2178960;81;21015;-83
2021/12/25 10:50:56;;;;;;;7.37;5.22;;;;;;;-3.51;100.00;98262.28;2187675;81;21121;-83
2021/12/25 10:53:58;;;;;;;8.00;5.45;;;;;;;-3.57;100.00;98265.70;2187601;81;21049;-83
2021/12/25 10:56:59;;;;;;;19.82;8.68;;;;;;;-3.53;100.00;98265.41;2187513;81;20946;-83
2021/12/25 11:00:00;;;;;;;18.52;9.43;;;;;;;-3.44;100.00;98270.37;2187748;81;21040;-83
2021/12/25 11:03:00;;;;;;;13.58;8.73;;;;;;;-3.34;100.00;98266.27;2187637;81;20946;-83
2021/12/25 11:06:01;;;;;;;12.98;6.60;;;;;;;-3.34;100.00;98275.23;2187699;81;20974;-83
2021/12/25 11:09:02;;;;;;;19.57;8.28;;;;;;;-3.40;100.00;98274.36;2187665;81;21073;-83
2021/12/25 11:12:03;;;;;;;15.45;8.13;;;;;;;-3.49;100.00;98269.39;2187633;81;20998;-82
2021/12/25 11:15:04;;;;;;;24.92;11.88;;;;;;;-3.52;100.00;98263.20;2187699;81;21056;-83
2021/12/25 11:18:06;;;;;;;13.45;7.00;;;;;;;-3.57;100.00;98255.46;2187782;81;20966;-81
2021/12/25 11:21:09;;;;;;;12.60;8.08;;;;;;;-3.55;100.00;98265.98;2187692;81;21016;-84
2021/12/25 11:24:10;;;;;;;13.93;8.80;;;;;;;-3.51;100.00;98275.55;2187786;81;21004;-83
2021/12/25 11:27:11;;;;;;;19.10;11.15;;;;;;;-3.44;100.00;98267.36;2187792;81;20946;-83
2021/12/25 11:30:12;;;;;;;31.97;14.28;;;;;;;-3.41;100.00;98255.27;2187610;81;21450;-81
2021/12/25 11:33:13;;;;;;;20.62;10.63;;;;;;;-3.39;100.00;98257.25;2187428;81;20984;-84
2021/12/25 11:36:14;;;;;;;23.07;12.58;;;;;;;-3.40;100.00;98250.03;2188034;81;21029;-84
2021/12/25 11:39:15;;;;;;;32.90;15.23;;;;;;;-3.42;100.00;98252.34;2187564;81;20946;-84
2021/12/25 11:42:17;;;;;;;24.05;12.00;;;;;;;-3.47;100.00;98250.12;2187590;81;20981;-84
2021/12/25 11:45:18;;;;;;;22.90;11.65;;;;;;;-3.41;100.00;98236.88;2187803;81;21642;-84
2021/12/25 11:48:19;;;;;;;25.70;13.90;;;;;;;-3.35;100.00;98234.38;2178858;81;21034;-81
2021/12/25 11:51:20;;;;;;;16.42;7.97;;;;;;;-3.31;100.00;98239.64;2171319;81;21508;-83
2021/12/25 11:54:27;;;;;;;11.80;5.60;;;;;;;-3.32;100.00;98240.09;2171090;82;20994;-83
2021/12/25 12:00:26;;;;;;;8.95;4.70;;;;;;;-3.38;100.00;98248.22;2054715;86;21137;-83
2021/12/25 12:03:27;;;;;;;9.00;4.78;;;;;;;-3.39;100.00;98255.97;2096613;84;21068;-83
2021/12/25 12:06:28;;;;;;;8.30;4.50;;;;;;;-3.42;100.00;98258.75;2096434;85;21615;-83
2021/12/25 12:09:29;;;;;;;6.10;4.10;;;;;;;-3.44;100.00;98260.95;2096377;85;21009;-83
2021/12/25 12:12:30;;;;;;;8.90;4.67;;;;;;;-3.52;100.00;98267.05;2096372;85;21068;-83
2021/12/25 12:15:31;;;;;;;13.53;6.20;;;;;;;-3.55;100.00;98267.26;2096394;85;21045;-83
2021/12/25 12:18:33;;;;;;;9.05;5.97;;;;;;;-3.47;100.00;98274.44;2096558;85;21068;-82
2021/12/25 12:21:40;;;;;;;7.87;4.65;;;;;;;-3.38;100.00;98272.97;2096627;85;21130;-83
2021/12/25 12:24:46;;;;;;;10.53;6.12;;;;;;;-3.32;100.00;98276.41;2096151;85;21065;-84
2021/12/25 12:27:44;;;;;;;13.18;5.92;;;;;;;-3.20;100.00;98272.58;2095567;85;21591;-83
2021/12/25 12:30:44;;;;;;;10.15;5.37;;;;;;;-3.13;100.00;98275.98;2096429;85;21156;-83
2021/12/25 12:36:48;;;;;;;17.48;8.78;;;;;;;-3.13;100.00;98291.34;2093118;82;21092;-83
2021/12/25 12:39:49;;;;;;;19.52;8.75;;;;;;;-3.10;100.00;98300.13;2158106;82;20984;-83
2021/12/25 12:42:51;;;;;;;11.35;6.22;;;;;;;-3.05;100.00;98298.88;2133554;82;22249;-83
2021/12/25 12:45:53;;;;;;;34.98;16.73;;;;;;;-3.03;100.00;98304.70;2158022;82;21128;-83
2021/12/25 12:48:54;;;;;;;57.00;23.32;;;;;;;-3.00;100.00;98294.73;2162204;82;21081;-83
2021/12/25 12:51:54;;;;;;;78.85;33.23;;;;;;;-3.01;100.00;98296.94;2139888;82;21021;-83
2021/12/25 12:54:55;;;;;;;49.83;23.10;;;;;;;-3.02;100.00;98301.22;2164637;82;20977;-83
2021/12/25 12:57:58;;;;;;;52.05;21.97;;;;;;;-2.96;100.00;98309.77;2139059;82;21052;-83
2021/12/25 13:00:59;;;;;;;41.20;18.95;;;;;;;-2.86;100.00;98301.81;2164557;82;21029;-83
2021/12/25 13:03:59;;;;;;;33.05;13.45;;;;;;;-2.76;100.00;98301.17;2164547;82;20982;-84
2021/12/25 13:07:00;;;;;;;37.25;16.12;;;;;;;-2.65;100.00;98308.50;2164617;82;21041;-83
2021/12/25 13:10:04;;;;;;;36.65;14.47;;;;;;;-2.59;100.00;98302.93;2164442;82;20931;-83
2021/12/25 13:13:04;;;;;;;66.72;22.27;;;;;;;-2.54;100.00;98318.00;2164296;82;21394;-83
2021/12/25 13:16:05;;;;;;;89.00;31.33;;;;;;;-2.50;100.00;98312.19;2164574;82;21017;-83
2021/12/25 13:19:06;;;;;;;103.97;36.75;;;;;;;-2.61;100.00;98312.48;2164519;82;21001;-83
2021/12/25 13:22:06;;;;;;;119.28;42.98;;;;;;;-2.64;100.00;98316.55;2164422;82;21025;-83
2021/12/25 13:25:07;;;;;;;72.82;26.40;;;;;;;-2.75;100.00;98325.41;2164645;82;21033;-83
2021/12/25 13:28:08;;;;;;;112.03;36.65;;;;;;;-2.76;100.00;98326.80;2165033;82;21044;-83
2021/12/25 13:31:09;;;;;;;131.52;48.17;;;;;;;-2.83;100.00;98331.55;2164590;82;21005;-83
2021/12/25 13:34:13;;;;;;;195.65;65.35;;;;;;;-2.87;100.00;98326.27;2177264;82;21489;-83
2021/12/25 13:37:16;;;;;;;278.80;104.85;;;;;;;-2.93;100.00;98319.80;2180771;81;21048;-83
2021/12/25 13:40:15;;;;;;;240.50;95.12;;;;;;;-2.94;100.00;98323.76;2180560;81;21085;-83
2021/12/25 13:43:16;;;;;;;142.18;59.77;;;;;;;-2.98;100.00;98328.28;2180969;82;21017;-83
2021/12/25 13:46:17;;;;;;;103.02;49.00;;;;;;;-3.02;100.00;98333.23;2180935;82;21100;-83
2021/12/25 13:49:18;;;;;;;56.80;27.82;;;;;;;-3.03;100.00;98334.16;2173830;82;21049;-83
2021/12/25 13:52:19;;;;;;;34.33;16.37;;;;;;;-3.06;100.00;98336.12;2171179;81;21005;-83
2021/12/25 13:55:20;;;;;;;26.97;12.73;;;;;;;-3.19;100.00;98341.27;2171055;81;21017;-83
2021/12/25 13:58:21;;;;;;;20.43;12.05;;;;;;;-3.28;100.00;98343.97;2171009;82;21014;-83
2021/12/25 14:01:22;;;;;;;41.73;16.97;;;;;;;-3.36;100.00;98354.36;2171225;81;20966;-83
2021/12/25 14:04:22;;;;;;;47.48;21.45;;;;;;;-3.44;100.00;98349.73;2170950;81;20994;-84
2021/12/25 14:07:23;;;;;;;46.63;19.05;;;;;;;-3.45;100.00;98359.63;2171078;81;21509;-83
2021/12/25 14:10:24;;;;;;;44.80;20.92;;;;;;;-3.39;100.00;98360.94;2170882;82;21012;-83
2021/12/25 14:13:25;;;;;;;58.40;25.08;;;;;;;-3.42;100.00;98366.27;2170913;82;21073;-83
2021/12/25 14:16:26;;;;;;;55.80;23.70;;;;;;;-3.48;100.00;98362.36;2171038;81;20970;-83
2021/12/25 14:19:27;;;;;;;52.73;22.85;;;;;;;-3.52;100.00;98362.22;2170978;81;21048;-83
2021/12/25 14:22:28;;;;;;;59.45;26.07;;;;;;;-3.48;100.00;98361.90;2170962;81;21080;-83
2021/12/25 14:25:28;;;;;;;69.55;27.98;;;;;;;-3.51;100.00;98363.39;2171176;82;21002;-83
2021/12/25 14:28:29;;;;;;;44.75;20.77;;;;;;;-3.54;100.00;98369.18;2170920;82;20966;-82
2021/12/25 14:31:30;;;;;;;62.83;23.90;;;;;;;-3.62;100.00;98361.99;2171098;81;21055;-82
2021/12/25 14:34:31;;;;;;;55.12;22.75;;;;;;;-3.70;100.00;98371.90;2171143;82;20990;-81
2021/12/25 14:37:32;;;;;;;53.25;21.42;;;;;;;-3.76;100.00;98367.98;2171068;82;21093;-81
2021/12/25 14:40:33;;;;;;;50.85;20.40;;;;;;;-3.85;100.00;98374.15;2171059;82;21498;-81
2021/12/25 14:43:34;;;;;;;47.60;17.80;;;;;;;-3.91;100.00;98377.12;2171352;82;21058;-81
2021/12/25 14:46:35;;;;;;;47.45;17.25;;;;;;;-4.05;100.00;98376.69;2171251;82;20939;-80
2021/12/25 14:49:36;;;;;;;58.33;19.90;;;;;;;-4.18;100.00;98381.77;2182940;81;21033;-81
2021/12/25 14:52:37;;;;;;;55.63;25.43;;;;;;;-4.25;100.00;98372.83;2187652;81;21016;-80
2021/12/25 14:55:37;;;;;;;52.62;21.95;;;;;;;-4.28;100.00;98375.58;2187735;81;22134;-83
2021/12/25 14:58:38;;;;;;;39.27;18.77;;;;;;;-4.32;100.00;98386.44;2187369;81;21052;-85
2021/12/25 15:01:39;;;;;;;57.08;24.00;;;;;;;-4.38;100.00;98392.41;2187803;81;21457;-84